sensor_id;sensor_type;location;lat;lon;timestamp;temperature;humidity
38325;DHT22;24126;52.672;13.622;2024-03-17T00:01:37;10.40;61.70
38325;DHT22;24126;52.672;13.622;2024-03-17T00:04:08;10.40;61.70
38325;DHT22;24126;52.672;13.622;2024-03-17T00:06:36;10.40;61.70
38325;DHT22;24126;52.672;13.622;2024-03-17T00:09:04;10.40;61.70
38325;DHT22;24126;52.672;13.622;2024-03-17T00:11:35;10.40;61.80
38325;DHT22;24126;52.672;13.622;2024-03-17T00:14:02;10.30;61.80
38325;DHT22;24126;52.672;13.622;2024-03-17T00:16:28;10.30;61.80
38325;DHT22;24126;52.672;13.622;2024-03-17T00:18:55;10.20;62.00
38325;DHT22;24126;52.672;13.622;2024-03-17T00:21:22;10.20;62.10
38325;DHT22;24126;52.672;13.622;2024-03-17T00:23:50;10.20;62.20
38325;DHT22;24126;52.672;13.622;2024-03-17T00:26:16;10.20;62.20
38325;DHT22;24126;52.672;13.622;2024-03-17T00:28:45;10.20;62.40
38325;DHT22;24126;52.672;13.622;2024-03-17T00:31:14;10.10;62.40
38325;DHT22;24126;52.672;13.622;2024-03-17T00:33:41;10.10;62.50
38325;DHT22;24126;52.672;13.622;2024-03-17T00:36:07;10.10;62.60
38325;DHT22;24126;52.672;13.622;2024-03-17T00:38:34;10.10;62.70
38325;DHT22;24126;52.672;13.622;2024-03-17T00:41:02;10.00;62.80
38325;DHT22;24126;52.672;13.622;2024-03-17T00:43:29;10.00;63.80
38325;DHT22;24126;52.672;13.622;2024-03-17T00:45:55;10.00;63.30
38325;DHT22;24126;52.672;13.622;2024-03-17T00:48:22;9.90;63.40
38325;DHT22;24126;52.672;13.622;2024-03-17T00:50:54;9.90;63.40
38325;DHT22;24126;52.672;13.622;2024-03-17T00:53:21;9.90;64.20
38325;DHT22;24126;52.672;13.622;2024-03-17T00:55:53;9.90;63.60
38325;DHT22;24126;52.672;13.622;2024-03-17T00:58:23;9.90;63.80
38325;DHT22;24126;52.672;13.622;2024-03-17T01:00:50;9.90;63.80
38325;DHT22;24126;52.672;13.622;2024-03-17T01:03:17;9.80;63.90
38325;DHT22;24126;52.672;13.622;2024-03-17T01:05:43;9.80;64.00
38325;DHT22;24126;52.672;13.622;2024-03-17T01:08:13;9.80;64.10
38325;DHT22;24126;52.672;13.622;2024-03-17T01:10:40;9.80;64.20
38325;DHT22;24126;52.672;13.622;2024-03-17T01:13:13;9.80;64.40
38325;DHT22;24126;52.672;13.622;2024-03-17T01:15:39;9.80;64.50
38325;DHT22;24126;52.672;13.622;2024-03-17T01:18:07;9.80;64.50
38325;DHT22;24126;52.672;13.622;2024-03-17T01:20:37;9.90;64.60
38325;DHT22;24126;52.672;13.622;2024-03-17T01:23:04;9.90;64.50
38325;DHT22;24126;52.672;13.622;2024-03-17T01:25:30;9.90;64.50
38325;DHT22;24126;52.672;13.622;2024-03-17T01:28:17;9.90;64.50
38325;DHT22;24126;52.672;13.622;2024-03-17T01:30:44;9.90;64.50
38325;DHT22;24126;52.672;13.622;2024-03-17T01:33:10;10.00;64.50
38325;DHT22;24126;52.672;13.622;2024-03-17T01:35:38;10.00;64.50
38325;DHT22;24126;52.672;13.622;2024-03-17T01:38:04;10.00;64.50
38325;DHT22;24126;52.672;13.622;2024-03-17T01:40:31;10.00;64.60
38325;DHT22;24126;52.672;13.622;2024-03-17T01:42:58;10.00;64.40
38325;DHT22;24126;52.672;13.622;2024-03-17T01:45:30;10.00;64.40
38325;DHT22;24126;52.672;13.622;2024-03-17T01:47:58;10.00;64.40
38325;DHT22;24126;52.672;13.622;2024-03-17T01:50:26;10.00;64.50
38325;DHT22;24126;52.672;13.622;2024-03-17T01:52:56;10.10;64.60
38325;DHT22;24126;52.672;13.622;2024-03-17T01:55:26;10.00;64.60
38325;DHT22;24126;52.672;13.622;2024-03-17T01:57:53;10.10;64.70
38325;DHT22;24126;52.672;13.622;2024-03-17T02:00:20;10.10;64.80
38325;DHT22;24126;52.672;13.622;2024-03-17T02:02:47;10.10;64.60
38325;DHT22;24126;52.672;13.622;2024-03-17T02:05:14;10.10;64.60
38325;DHT22;24126;52.672;13.622;2024-03-17T02:07:40;10.10;64.60
38325;DHT22;24126;52.672;13.622;2024-03-17T02:10:07;10.10;64.60
38325;DHT22;24126;52.672;13.622;2024-03-17T02:12:41;10.10;64.60
38325;DHT22;24126;52.672;13.622;2024-03-17T02:15:20;10.00;64.60
38325;DHT22;24126;52.672;13.622;2024-03-17T02:17:49;10.00;64.70
38325;DHT22;24126;52.672;13.622;2024-03-17T02:20:24;10.00;64.90
38325;DHT22;24126;52.672;13.622;2024-03-17T02:23:12;10.00;64.90
38325;DHT22;24126;52.672;13.622;2024-03-17T02:25:44;10.00;65.60
38325;DHT22;24126;52.672;13.622;2024-03-17T02:28:14;10.00;65.10
38325;DHT22;24126;52.672;13.622;2024-03-17T02:31:03;10.00;65.00
38325;DHT22;24126;52.672;13.622;2024-03-17T02:33:39;10.00;65.60
38325;DHT22;24126;52.672;13.622;2024-03-17T02:36:05;9.90;65.80
38325;DHT22;24126;52.672;13.622;2024-03-17T02:38:35;10.00;65.20
38325;DHT22;24126;52.672;13.622;2024-03-17T02:41:21;9.90;65.10
38325;DHT22;24126;52.672;13.622;2024-03-17T02:43:48;9.90;65.10
38325;DHT22;24126;52.672;13.622;2024-03-17T02:46:23;9.90;65.10
38325;DHT22;24126;52.672;13.622;2024-03-17T02:48:51;9.90;65.10
38325;DHT22;24126;52.672;13.622;2024-03-17T02:51:19;9.90;65.10
38325;DHT22;24126;52.672;13.622;2024-03-17T02:53:51;9.90;65.10
38325;DHT22;24126;52.672;13.622;2024-03-17T02:56:24;9.90;65.10
38325;DHT22;24126;52.672;13.622;2024-03-17T02:58:53;9.90;65.10
38325;DHT22;24126;52.672;13.622;2024-03-17T03:01:20;9.90;65.30
38325;DHT22;24126;52.672;13.622;2024-03-17T03:03:53;9.90;65.20
38325;DHT22;24126;52.672;13.622;2024-03-17T03:06:26;9.90;65.20
38325;DHT22;24126;52.672;13.622;2024-03-17T03:08:53;10.00;65.30
38325;DHT22;24126;52.672;13.622;2024-03-17T03:11:36;9.90;65.10
38325;DHT22;24126;52.672;13.622;2024-03-17T03:15:09;9.90;65.20
38325;DHT22;24126;52.672;13.622;2024-03-17T03:18:15;9.90;65.20
38325;DHT22;24126;52.672;13.622;2024-03-17T03:20:52;9.90;65.20
38325;DHT22;24126;52.672;13.622;2024-03-17T03:23:23;9.90;65.30
38325;DHT22;24126;52.672;13.622;2024-03-17T03:25:57;9.80;65.30
38325;DHT22;24126;52.672;13.622;2024-03-17T03:28:29;9.80;65.40
38325;DHT22;24126;52.672;13.622;2024-03-17T03:30:56;9.80;65.60
38325;DHT22;24126;52.672;13.622;2024-03-17T03:33:25;9.70;65.60
38325;DHT22;24126;52.672;13.622;2024-03-17T03:35:53;9.70;65.90
38325;DHT22;24126;52.672;13.622;2024-03-17T03:38:21;9.70;66.00
38325;DHT22;24126;52.672;13.622;2024-03-17T03:40:49;9.70;66.10
38325;DHT22;24126;52.672;13.622;2024-03-17T03:43:19;9.70;66.20
38325;DHT22;24126;52.672;13.622;2024-03-17T03:45:46;9.60;66.20
38325;DHT22;24126;52.672;13.622;2024-03-17T03:48:22;9.60;66.10
38325;DHT22;24126;52.672;13.622;2024-03-17T03:50:49;9.60;66.00
38325;DHT22;24126;52.672;13.622;2024-03-17T03:53:27;9.50;65.90
38325;DHT22;24126;52.672;13.622;2024-03-17T03:56:09;9.50;66.00
38325;DHT22;24126;52.672;13.622;2024-03-17T03:58:39;9.40;66.00
38325;DHT22;24126;52.672;13.622;2024-03-17T04:01:10;9.40;66.20
38325;DHT22;24126;52.672;13.622;2024-03-17T04:04:07;9.30;66.10
38325;DHT22;24126;52.672;13.622;2024-03-17T04:06:48;9.30;66.80
38325;DHT22;24126;52.672;13.622;2024-03-17T04:09:18;9.30;66.20
38325;DHT22;24126;52.672;13.622;2024-03-17T04:11:48;9.20;66.20
38325;DHT22;24126;52.672;13.622;2024-03-17T04:17:19;9.20;66.40
38325;DHT22;24126;52.672;13.622;2024-03-17T04:19:51;9.20;66.50
38325;DHT22;24126;52.672;13.622;2024-03-17T04:22:24;9.10;66.40
38325;DHT22;24126;52.672;13.622;2024-03-17T04:25:20;9.10;66.40
38325;DHT22;24126;52.672;13.622;2024-03-17T04:27:47;9.10;66.50
38325;DHT22;24126;52.672;13.622;2024-03-17T04:30:15;9.10;66.50
38325;DHT22;24126;52.672;13.622;2024-03-17T04:32:42;9.10;66.50
38325;DHT22;24126;52.672;13.622;2024-03-17T04:35:09;9.00;66.50
38325;DHT22;24126;52.672;13.622;2024-03-17T04:37:36;9.00;66.50
38325;DHT22;24126;52.672;13.622;2024-03-17T04:40:06;9.00;66.50
38325;DHT22;24126;52.672;13.622;2024-03-17T04:42:35;9.00;66.60
38325;DHT22;24126;52.672;13.622;2024-03-17T04:45:05;8.90;66.60
38325;DHT22;24126;52.672;13.622;2024-03-17T04:47:32;8.90;66.70
38325;DHT22;24126;52.672;13.622;2024-03-17T04:49:59;8.90;66.70
38325;DHT22;24126;52.672;13.622;2024-03-17T04:52:26;8.90;66.80
38325;DHT22;24126;52.672;13.622;2024-03-17T04:54:53;8.90;66.90
38325;DHT22;24126;52.672;13.622;2024-03-17T04:57:20;8.80;66.80
38325;DHT22;24126;52.672;13.622;2024-03-17T04:59:47;8.80;66.90
38325;DHT22;24126;52.672;13.622;2024-03-17T05:02:14;8.80;67.00
38325;DHT22;24126;52.672;13.622;2024-03-17T05:04:41;8.80;67.10
38325;DHT22;24126;52.672;13.622;2024-03-17T05:07:08;8.80;67.10
38325;DHT22;24126;52.672;13.622;2024-03-17T05:09:35;8.80;67.20
38325;DHT22;24126;52.672;13.622;2024-03-17T05:12:02;8.70;67.20
38325;DHT22;24126;52.672;13.622;2024-03-17T05:14:29;8.70;67.30
38325;DHT22;24126;52.672;13.622;2024-03-17T05:16:56;8.70;67.40
38325;DHT22;24126;52.672;13.622;2024-03-17T05:19:23;8.70;68.20
38325;DHT22;24126;52.672;13.622;2024-03-17T05:21:50;8.70;67.60
38325;DHT22;24126;52.672;13.622;2024-03-17T05:24:17;8.60;67.60
38325;DHT22;24126;52.672;13.622;2024-03-17T05:26:45;8.60;67.60
38325;DHT22;24126;52.672;13.622;2024-03-17T05:29:12;8.60;67.70
38325;DHT22;24126;52.672;13.622;2024-03-17T05:31:39;8.60;68.50
38325;DHT22;24126;52.672;13.622;2024-03-17T05:34:06;8.50;67.70
38325;DHT22;24126;52.672;13.622;2024-03-17T05:36:35;8.50;67.80
38325;DHT22;24126;52.672;13.622;2024-03-17T05:39:02;8.50;67.90
38325;DHT22;24126;52.672;13.622;2024-03-17T05:41:29;8.50;68.00
38325;DHT22;24126;52.672;13.622;2024-03-17T05:43:56;8.50;68.10
38325;DHT22;24126;52.672;13.622;2024-03-17T05:46:24;8.50;68.10
38325;DHT22;24126;52.672;13.622;2024-03-17T05:48:52;8.60;68.40
38325;DHT22;24126;52.672;13.622;2024-03-17T05:51:20;8.60;68.30
38325;DHT22;24126;52.672;13.622;2024-03-17T05:56:18;8.70;68.30
38325;DHT22;24126;52.672;13.622;2024-03-17T05:58:48;8.80;68.30
38325;DHT22;24126;52.672;13.622;2024-03-17T06:01:15;8.80;68.90
38325;DHT22;24126;52.672;13.622;2024-03-17T06:03:42;8.80;68.20
38325;DHT22;24126;52.672;13.622;2024-03-17T06:06:09;8.90;68.20
38325;DHT22;24126;52.672;13.622;2024-03-17T06:08:37;8.90;68.30
38325;DHT22;24126;52.672;13.622;2024-03-17T06:11:04;8.90;68.20
38325;DHT22;24126;52.672;13.622;2024-03-17T06:13:32;9.00;68.20
38325;DHT22;24126;52.672;13.622;2024-03-17T06:15:59;9.10;68.10
38325;DHT22;24126;52.672;13.622;2024-03-17T06:18:27;9.10;68.10
38325;DHT22;24126;52.672;13.622;2024-03-17T06:20:54;9.10;68.10
38325;DHT22;24126;52.672;13.622;2024-03-17T06:23:24;9.20;68.00
38325;DHT22;24126;52.672;13.622;2024-03-17T06:25:51;9.20;68.00
38325;DHT22;24126;52.672;13.622;2024-03-17T06:28:17;9.20;67.90
38325;DHT22;24126;52.672;13.622;2024-03-17T06:30:45;9.30;67.90
38325;DHT22;24126;52.672;13.622;2024-03-17T06:33:15;9.30;67.80
38325;DHT22;24126;52.672;13.622;2024-03-17T06:35:44;9.50;68.10
38325;DHT22;24126;52.672;13.622;2024-03-17T06:38:12;9.80;67.70
38325;DHT22;24126;52.672;13.622;2024-03-17T06:40:41;10.10;66.50
38325;DHT22;24126;52.672;13.622;2024-03-17T06:43:08;10.30;66.20
38325;DHT22;24126;52.672;13.622;2024-03-17T06:45:35;10.50;65.60
38325;DHT22;24126;52.672;13.622;2024-03-17T06:48:02;10.60;65.20
38325;DHT22;24126;52.672;13.622;2024-03-17T06:50:29;10.70;65.00
38325;DHT22;24126;52.672;13.622;2024-03-17T06:52:56;10.80;64.40
38325;DHT22;24126;52.672;13.622;2024-03-17T06:55:23;11.00;64.00
38325;DHT22;24126;52.672;13.622;2024-03-17T06:57:50;11.10;63.70
38325;DHT22;24126;52.672;13.622;2024-03-17T07:00:18;11.10;63.40
38325;DHT22;24126;52.672;13.622;2024-03-17T07:02:50;11.10;63.40
38325;DHT22;24126;52.672;13.622;2024-03-17T07:05:17;11.30;64.80
38325;DHT22;24126;52.672;13.622;2024-03-17T07:07:44;12.30;62.40
38325;DHT22;24126;52.672;13.622;2024-03-17T07:10:12;12.80;59.80
38325;DHT22;24126;52.672;13.622;2024-03-17T07:12:39;12.80;59.20
38325;DHT22;24126;52.672;13.622;2024-03-17T07:15:07;12.70;59.00
38325;DHT22;24126;52.672;13.622;2024-03-17T07:17:36;12.70;59.10
38325;DHT22;24126;52.672;13.622;2024-03-17T07:20:04;12.70;58.80
38325;DHT22;24126;52.672;13.622;2024-03-17T07:22:34;12.70;58.60
38325;DHT22;24126;52.672;13.622;2024-03-17T07:25:01;12.70;58.30
38325;DHT22;24126;52.672;13.622;2024-03-17T07:27:29;12.70;58.40
38325;DHT22;24126;52.672;13.622;2024-03-17T07:29:57;12.60;58.80
38325;DHT22;24126;52.672;13.622;2024-03-17T07:32:24;12.50;59.00
38325;DHT22;24126;52.672;13.622;2024-03-17T07:34:51;12.40;59.20
38325;DHT22;24126;52.672;13.622;2024-03-17T07:37:18;12.40;59.10
38325;DHT22;24126;52.672;13.622;2024-03-17T07:39:45;12.30;59.20
38325;DHT22;24126;52.672;13.622;2024-03-17T07:42:15;12.20;59.40
38325;DHT22;24126;52.672;13.622;2024-03-17T07:44:45;12.10;59.20
38325;DHT22;24126;52.672;13.622;2024-03-17T07:47:12;12.10;59.30
38325;DHT22;24126;52.672;13.622;2024-03-17T07:49:39;12.00;59.40
38325;DHT22;24126;52.672;13.622;2024-03-17T07:52:07;12.00;59.80
38325;DHT22;24126;52.672;13.622;2024-03-17T07:54:34;12.00;59.80
38325;DHT22;24126;52.672;13.622;2024-03-17T07:57:02;12.00;60.00
38325;DHT22;24126;52.672;13.622;2024-03-17T07:59:29;12.00;59.90
38325;DHT22;24126;52.672;13.622;2024-03-17T08:01:57;12.00;59.80
38325;DHT22;24126;52.672;13.622;2024-03-17T08:04:24;12.00;59.90
38325;DHT22;24126;52.672;13.622;2024-03-17T08:06:51;12.10;59.60
38325;DHT22;24126;52.672;13.622;2024-03-17T08:09:18;12.10;59.50
38325;DHT22;24126;52.672;13.622;2024-03-17T08:11:45;12.10;59.50
38325;DHT22;24126;52.672;13.622;2024-03-17T08:14:13;12.10;59.50
38325;DHT22;24126;52.672;13.622;2024-03-17T08:16:41;12.10;59.40
38325;DHT22;24126;52.672;13.622;2024-03-17T08:19:08;12.20;59.30
38325;DHT22;24126;52.672;13.622;2024-03-17T08:21:35;12.30;59.80
38325;DHT22;24126;52.672;13.622;2024-03-17T08:24:02;12.60;60.80
38325;DHT22;24126;52.672;13.622;2024-03-17T08:26:30;13.00;60.30
38325;DHT22;24126;52.672;13.622;2024-03-17T08:28:57;13.60;59.00
38325;DHT22;24126;52.672;13.622;2024-03-17T08:31:24;14.00;58.30
38325;DHT22;24126;52.672;13.622;2024-03-17T08:33:52;14.30;57.50
38325;DHT22;24126;52.672;13.622;2024-03-17T08:36:20;14.70;56.60
38325;DHT22;24126;52.672;13.622;2024-03-17T08:38:47;15.00;56.20
38325;DHT22;24126;52.672;13.622;2024-03-17T08:41:14;15.30;55.40
38325;DHT22;24126;52.672;13.622;2024-03-17T08:43:42;15.60;54.20
38325;DHT22;24126;52.672;13.622;2024-03-17T08:46:10;15.70;53.80
38325;DHT22;24126;52.672;13.622;2024-03-17T08:48:40;15.70;53.70
38325;DHT22;24126;52.672;13.622;2024-03-17T08:51:07;15.70;53.60
38325;DHT22;24126;52.672;13.622;2024-03-17T08:53:35;15.70;53.50
38325;DHT22;24126;52.672;13.622;2024-03-17T08:56:03;15.60;52.80
38325;DHT22;24126;52.672;13.622;2024-03-17T08:58:32;15.50;52.90
38325;DHT22;24126;52.672;13.622;2024-03-17T09:01:02;15.40;52.90
38325;DHT22;24126;52.672;13.622;2024-03-17T09:03:29;15.20;52.90
38325;DHT22;24126;52.672;13.622;2024-03-17T09:05:56;15.10;52.90
38325;DHT22;24126;52.672;13.622;2024-03-17T09:08:24;15.00;53.20
38325;DHT22;24126;52.672;13.622;2024-03-17T09:10:52;15.00;53.60
38325;DHT22;24126;52.672;13.622;2024-03-17T09:13:20;15.00;53.40
38325;DHT22;24126;52.672;13.622;2024-03-17T09:15:53;15.10;53.30
38325;DHT22;24126;52.672;13.622;2024-03-17T09:18:20;15.10;53.20
38325;DHT22;24126;52.672;13.622;2024-03-17T09:20:55;15.00;53.40
38325;DHT22;24126;52.672;13.622;2024-03-17T09:23:23;14.90;52.70
38325;DHT22;24126;52.672;13.622;2024-03-17T09:28:28;14.80;52.60
38325;DHT22;24126;52.672;13.622;2024-03-17T09:30:55;14.80;53.30
38325;DHT22;24126;52.672;13.622;2024-03-17T09:33:23;15.00;53.00
38325;DHT22;24126;52.672;13.622;2024-03-17T09:35:54;15.00;52.70
38325;DHT22;24126;52.672;13.622;2024-03-17T09:38:21;15.00;52.40
38325;DHT22;24126;52.672;13.622;2024-03-17T09:40:49;14.80;52.70
38325;DHT22;24126;52.672;13.622;2024-03-17T09:43:19;14.70;53.40
38325;DHT22;24126;52.672;13.622;2024-03-17T09:45:47;14.50;53.30
38325;DHT22;24126;52.672;13.622;2024-03-17T09:48:15;14.50;54.30
38325;DHT22;24126;52.672;13.622;2024-03-17T09:51:01;14.80;54.70
38325;DHT22;24126;52.672;13.622;2024-03-17T09:53:32;15.20;54.10
38325;DHT22;24126;52.672;13.622;2024-03-17T09:56:05;15.30;52.90
38325;DHT22;24126;52.672;13.622;2024-03-17T09:58:35;15.30;52.90
38325;DHT22;24126;52.672;13.622;2024-03-17T10:01:02;15.20;52.80
38325;DHT22;24126;52.672;13.622;2024-03-17T10:03:38;15.10;53.10
38325;DHT22;24126;52.672;13.622;2024-03-17T10:06:06;15.10;53.80
38325;DHT22;24126;52.672;13.622;2024-03-17T10:08:33;15.40;53.80
38325;DHT22;24126;52.672;13.622;2024-03-17T10:11:00;15.80;53.20
38325;DHT22;24126;52.672;13.622;2024-03-17T10:13:27;16.10;52.30
38325;DHT22;24126;52.672;13.622;2024-03-17T10:15:54;16.30;51.40
38325;DHT22;24126;52.672;13.622;2024-03-17T10:18:21;16.30;51.00
38325;DHT22;24126;52.672;13.622;2024-03-17T10:20:49;16.20;50.70
38325;DHT22;24126;52.672;13.622;2024-03-17T10:23:20;16.10;51.10
38325;DHT22;24126;52.672;13.622;2024-03-17T10:25:47;16.00;50.70
38325;DHT22;24126;52.672;13.622;2024-03-17T10:28:15;16.00;51.80
38325;DHT22;24126;52.672;13.622;2024-03-17T10:30:41;16.20;51.70
38325;DHT22;24126;52.672;13.622;2024-03-17T10:33:20;16.30;50.90
38325;DHT22;24126;52.672;13.622;2024-03-17T10:35:50;16.50;50.70
38325;DHT22;24126;52.672;13.622;2024-03-17T10:38:24;16.90;50.40
38325;DHT22;24126;52.672;13.622;2024-03-17T10:40:52;17.20;49.80
38325;DHT22;24126;52.672;13.622;2024-03-17T10:43:19;17.50;49.50
38325;DHT22;24126;52.672;13.622;2024-03-17T10:45:53;17.50;48.30
38325;DHT22;24126;52.672;13.622;2024-03-17T10:48:21;17.40;47.90
38325;DHT22;24126;52.672;13.622;2024-03-17T10:50:53;17.10;47.50
38325;DHT22;24126;52.672;13.622;2024-03-17T10:53:24;16.80;47.50
38325;DHT22;24126;52.672;13.622;2024-03-17T10:56:06;16.40;47.90
38325;DHT22;24126;52.672;13.622;2024-03-17T10:58:35;16.30;48.60
38325;DHT22;24126;52.672;13.622;2024-03-17T11:01:03;16.10;49.40
38325;DHT22;24126;52.672;13.622;2024-03-17T11:03:31;16.20;49.50
38325;DHT22;24126;52.672;13.622;2024-03-17T11:05:58;16.30;49.00
38325;DHT22;24126;52.672;13.622;2024-03-17T11:08:26;16.50;48.40
38325;DHT22;24126;52.672;13.622;2024-03-17T11:10:53;16.70;48.40
38325;DHT22;24126;52.672;13.622;2024-03-17T11:13:22;16.90;47.50
38325;DHT22;24126;52.672;13.622;2024-03-17T11:15:49;17.10;47.10
38325;DHT22;24126;52.672;13.622;2024-03-17T11:21:05;17.40;46.60
38325;DHT22;24126;52.672;13.622;2024-03-17T11:23:41;17.50;46.60
38325;DHT22;24126;52.672;13.622;2024-03-17T11:26:08;17.70;46.00
38325;DHT22;24126;52.672;13.622;2024-03-17T11:28:45;17.80;45.90
38325;DHT22;24126;52.672;13.622;2024-03-17T11:33:58;17.60;45.30
38325;DHT22;24126;52.672;13.622;2024-03-17T11:38:59;17.10;45.60
38325;DHT22;24126;52.672;13.622;2024-03-17T11:46:39;16.80;46.10
38325;DHT22;24126;52.672;13.622;2024-03-17T11:49:06;16.80;45.10
38325;DHT22;24126;52.672;13.622;2024-03-17T11:51:34;16.70;45.00
38325;DHT22;24126;52.672;13.622;2024-03-17T11:54:00;16.50;45.70
38325;DHT22;24126;52.672;13.622;2024-03-17T11:56:27;16.30;45.70
38325;DHT22;24126;52.672;13.622;2024-03-17T11:59:05;16.10;46.30
38325;DHT22;24126;52.672;13.622;2024-03-17T12:01:34;16.00;46.40
38325;DHT22;24126;52.672;13.622;2024-03-17T12:04:01;16.10;46.30
38325;DHT22;24126;52.672;13.622;2024-03-17T12:06:31;16.20;46.50
38325;DHT22;24126;52.672;13.622;2024-03-17T12:09:10;16.30;46.00
38325;DHT22;24126;52.672;13.622;2024-03-17T12:11:37;16.50;46.00
38325;DHT22;24126;52.672;13.622;2024-03-17T12:14:17;16.50;45.50
38325;DHT22;24126;52.672;13.622;2024-03-17T12:16:55;16.40;46.00
38325;DHT22;24126;52.672;13.622;2024-03-17T12:19:22;16.40;45.60
38325;DHT22;24126;52.672;13.622;2024-03-17T12:21:50;16.30;45.20
38325;DHT22;24126;52.672;13.622;2024-03-17T12:26:44;16.20;46.00
38325;DHT22;24126;52.672;13.622;2024-03-17T12:29:23;16.30;46.20
38325;DHT22;24126;52.672;13.622;2024-03-17T12:31:51;16.40;46.30
38325;DHT22;24126;52.672;13.622;2024-03-17T12:34:18;16.50;45.90
38325;DHT22;24126;52.672;13.622;2024-03-17T12:36:46;16.50;45.60
38325;DHT22;24126;52.672;13.622;2024-03-17T12:39:22;16.60;44.90
38325;DHT22;24126;52.672;13.622;2024-03-17T12:42:09;16.50;44.70
38325;DHT22;24126;52.672;13.622;2024-03-17T12:44:36;16.40;44.30
38325;DHT22;24126;52.672;13.622;2024-03-17T12:47:07;16.20;44.80
38325;DHT22;24126;52.672;13.622;2024-03-17T12:49:34;15.90;45.00
38325;DHT22;24126;52.672;13.622;2024-03-17T12:52:01;15.90;44.90
38325;DHT22;24126;52.672;13.622;2024-03-17T12:54:28;15.80;45.10
38325;DHT22;24126;52.672;13.622;2024-03-17T12:57:05;15.80;45.40
38325;DHT22;24126;52.672;13.622;2024-03-17T12:59:50;15.90;44.90
38325;DHT22;24126;52.672;13.622;2024-03-17T13:02:41;16.00;44.70
38325;DHT22;24126;52.672;13.622;2024-03-17T13:05:18;16.00;44.60
38325;DHT22;24126;52.672;13.622;2024-03-17T13:07:46;16.00;44.20
38325;DHT22;24126;52.672;13.622;2024-03-17T13:10:14;15.90;44.30
38325;DHT22;24126;52.672;13.622;2024-03-17T13:12:42;15.80;44.40
38325;DHT22;24126;52.672;13.622;2024-03-17T13:15:10;15.70;44.20
38325;DHT22;24126;52.672;13.622;2024-03-17T13:17:37;15.60;44.30
38325;DHT22;24126;52.672;13.622;2024-03-17T13:20:06;15.50;44.60
38325;DHT22;24126;52.672;13.622;2024-03-17T13:22:37;15.30;45.60
38325;DHT22;24126;52.672;13.622;2024-03-17T13:25:14;15.20;45.30
38325;DHT22;24126;52.672;13.622;2024-03-17T13:27:42;15.20;45.50
38325;DHT22;24126;52.672;13.622;2024-03-17T13:30:09;15.20;45.60
38325;DHT22;24126;52.672;13.622;2024-03-17T13:32:36;15.20;45.80
38325;DHT22;24126;52.672;13.622;2024-03-17T13:35:03;15.30;45.80
38325;DHT22;24126;52.672;13.622;2024-03-17T13:37:30;15.30;45.60
38325;DHT22;24126;52.672;13.622;2024-03-17T13:39:58;15.30;45.70
38325;DHT22;24126;52.672;13.622;2024-03-17T13:42:27;15.30;45.70
38325;DHT22;24126;52.672;13.622;2024-03-17T13:44:54;15.40;45.80
38325;DHT22;24126;52.672;13.622;2024-03-17T13:47:22;15.30;45.50
38325;DHT22;24126;52.672;13.622;2024-03-17T13:49:49;15.30;45.40
38325;DHT22;24126;52.672;13.622;2024-03-17T13:52:16;15.30;45.10
38325;DHT22;24126;52.672;13.622;2024-03-17T13:54:44;15.20;45.00
38325;DHT22;24126;52.672;13.622;2024-03-17T13:57:11;15.10;44.40
38325;DHT22;24126;52.672;13.622;2024-03-17T13:59:38;15.10;44.90
38325;DHT22;24126;52.672;13.622;2024-03-17T14:02:06;15.10;45.10
38325;DHT22;24126;52.672;13.622;2024-03-17T14:04:34;15.00;45.30
38325;DHT22;24126;52.672;13.622;2024-03-17T14:07:01;15.00;45.10
38325;DHT22;24126;52.672;13.622;2024-03-17T14:09:29;14.80;45.20
38325;DHT22;24126;52.672;13.622;2024-03-17T14:11:57;14.80;45.50
38325;DHT22;24126;52.672;13.622;2024-03-17T14:14:24;14.70;45.80
38325;DHT22;24126;52.672;13.622;2024-03-17T14:16:51;14.70;45.90
38325;DHT22;24126;52.672;13.622;2024-03-17T14:19:19;14.80;46.00
38325;DHT22;24126;52.672;13.622;2024-03-17T14:21:46;14.80;46.00
38325;DHT22;24126;52.672;13.622;2024-03-17T14:24:13;14.80;46.10
38325;DHT22;24126;52.672;13.622;2024-03-17T14:26:40;14.90;46.30
38325;DHT22;24126;52.672;13.622;2024-03-17T14:29:07;15.00;46.40
38325;DHT22;24126;52.672;13.622;2024-03-17T14:31:34;15.00;46.20
38325;DHT22;24126;52.672;13.622;2024-03-17T14:34:05;15.00;46.10
38325;DHT22;24126;52.672;13.622;2024-03-17T14:36:32;15.10;45.90
38325;DHT22;24126;52.672;13.622;2024-03-17T14:38:59;15.10;45.70
38325;DHT22;24126;52.672;13.622;2024-03-17T14:41:27;15.10;45.60
38325;DHT22;24126;52.672;13.622;2024-03-17T14:43:54;15.00;45.60
38325;DHT22;24126;52.672;13.622;2024-03-17T14:46:21;15.00;45.60
38325;DHT22;24126;52.672;13.622;2024-03-17T14:48:48;15.00;45.70
38325;DHT22;24126;52.672;13.622;2024-03-17T14:51:17;15.00;45.80
38325;DHT22;24126;52.672;13.622;2024-03-17T14:53:44;15.00;45.40
38325;DHT22;24126;52.672;13.622;2024-03-17T14:56:15;15.00;45.80
38325;DHT22;24126;52.672;13.622;2024-03-17T14:58:43;14.90;45.50
38325;DHT22;24126;52.672;13.622;2024-03-17T15:01:11;15.00;46.00
38325;DHT22;24126;52.672;13.622;2024-03-17T15:03:39;14.90;45.30
38325;DHT22;24126;52.672;13.622;2024-03-17T15:06:11;14.90;45.70
38325;DHT22;24126;52.672;13.622;2024-03-17T15:08:38;14.90;45.70
38325;DHT22;24126;52.672;13.622;2024-03-17T15:11:05;14.80;46.00
38325;DHT22;24126;52.672;13.622;2024-03-17T15:13:34;14.80;45.60
38325;DHT22;24126;52.672;13.622;2024-03-17T15:16:02;14.70;45.50
38325;DHT22;24126;52.672;13.622;2024-03-17T15:18:31;14.60;46.00
38325;DHT22;24126;52.672;13.622;2024-03-17T15:21:01;14.60;45.80
38325;DHT22;24126;52.672;13.622;2024-03-17T15:23:31;14.60;45.90
38325;DHT22;24126;52.672;13.622;2024-03-17T15:26:04;14.60;46.00
38325;DHT22;24126;52.672;13.622;2024-03-17T15:28:42;14.50;46.30
38325;DHT22;24126;52.672;13.622;2024-03-17T15:31:09;14.50;46.10
38325;DHT22;24126;52.672;13.622;2024-03-17T15:33:37;14.40;46.00
38325;DHT22;24126;52.672;13.622;2024-03-17T15:36:07;14.30;46.20
38325;DHT22;24126;52.672;13.622;2024-03-17T15:38:34;14.30;46.40
38325;DHT22;24126;52.672;13.622;2024-03-17T15:41:03;14.20;46.30
38325;DHT22;24126;52.672;13.622;2024-03-17T15:43:32;14.20;46.00
38325;DHT22;24126;52.672;13.622;2024-03-17T15:46:00;14.10;46.10
38325;DHT22;24126;52.672;13.622;2024-03-17T15:48:27;14.10;46.60
38325;DHT22;24126;52.672;13.622;2024-03-17T15:50:55;14.00;46.40
38325;DHT22;24126;52.672;13.622;2024-03-17T15:53:23;13.90;46.60
38325;DHT22;24126;52.672;13.622;2024-03-17T15:55:55;13.90;46.10
38325;DHT22;24126;52.672;13.622;2024-03-17T15:58:25;13.90;46.30